Terminal Aerodrome Forecast
Issued by NWS Duluth, MN

Home | Current Version | Previous Version | Text Only | Print | Product List | Glossary On
Versions: 1 2 3 4 5 6 7 8 9 10 11 12 13 14 15 16 17 18 19 20 21 22 23 24 25 26 27 28 29 30 31 32 33 34 35
000
FTUS43 KDLH 291900 AAB
TAFINL
TAF AMD
KINL 291918Z 2919/3018 13008KT P6SM VCSH OVC020
      TEMPO 2922/3002 5SM TSRA BKN015CB OVC035
     FM300300 35004KT 3SM BR OVC010
     FM300600 VRB03KT 4SM BR BKN012
     FM301500 04005KT P6SM BKN015=

USA.gov is the U.S. government's official web portal to all federal, state and local government web resources and services.